Time;durP1;ratioP1;P1;durP2;ratioP2;P2;SDS_P1;SDS_P2;PMS_P1;PMS_P2;Temp;Humidity;BMP_temperature;BMP_pressure;BME280_temperature;BME280_humidity;BME280_pressure;Samples;Min_cycle;Max_cycle;Signal;HPM_P1;HPM_P2
2023/06/02 00:01:32;;;;;;;9.70;3.92;;;20.00;62.10;;;;;;5115985;28;20024;-69
2023/06/02 00:03:59;;;;;;;8.18;4.05;;;19.90;62.80;;;;;;5114475;28;20035;-67
2023/06/02 00:06:26;;;;;;;5.97;3.88;;;19.90;62.40;;;;;;5115031;28;20070;-68
2023/06/02 00:08:52;;;;;;;7.18;3.97;;;19.90;62.50;;;;;;5115902;28;20430;-67
2023/06/02 00:11:23;;;;;;;9.88;4.38;;;19.90;62.10;;;;;;5115186;28;20023;-68
2023/06/02 00:13:48;;;;;;;11.18;4.00;;;19.90;62.10;;;;;;5115667;28;20035;-67
2023/06/02 00:16:15;;;;;;;11.93;4.28;;;19.90;62.00;;;;;;5115332;28;20110;-67
2023/06/02 00:18:43;;;;;;;5.70;3.67;;;19.80;62.00;;;;;;5115205;28;20512;-67
2023/06/02 00:21:09;;;;;;;6.40;3.85;;;19.80;62.10;;;;;;5115118;27;20020;-68
2023/06/02 00:23:35;;;;;;;6.15;3.90;;;19.80;61.80;;;;;;5113709;28;20028;-68
2023/06/02 00:26:01;;;;;;;14.60;4.65;;;19.70;62.30;;;;;;5112990;28;20165;-68
2023/06/02 00:28:27;;;;;;;6.03;3.67;;;19.70;63.10;;;;;;5114699;28;20112;-68
2023/06/02 00:30:53;;;;;;;7.32;3.63;;;19.60;63.10;;;;;;5115483;28;20023;-68
2023/06/02 00:33:19;;;;;;;9.32;4.03;;;19.50;63.40;;;;;;5114874;28;20023;-67
2023/06/02 00:35:45;;;;;;;11.48;3.90;;;19.50;63.60;;;;;;5116214;28;20444;-68
2023/06/02 00:38:11;;;;;;;7.22;3.88;;;19.50;63.80;;;;;;5114816;28;20088;-69
2023/06/02 00:40:36;;;;;;;7.57;3.80;;;19.50;63.90;;;;;;5115075;28;20024;-69
2023/06/02 00:43:02;;;;;;;9.10;4.15;;;19.40;63.50;;;;;;5115040;28;20096;-68
2023/06/02 00:45:28;;;;;;;7.72;3.97;;;19.50;63.50;;;;;;5114294;27;20141;-67
2023/06/02 00:47:55;;;;;;;5.22;3.33;;;19.40;63.60;;;;;;5115280;28;20036;-68
2023/06/02 00:50:22;;;;;;;8.05;4.32;;;19.40;63.40;;;;;;5114579;28;20036;-69
2023/06/02 00:52:51;;;;;;;9.73;3.75;;;19.40;63.40;;;;;;5114940;28;20030;-69
2023/06/02 00:55:17;;;;;;;5.70;3.70;;;19.40;63.70;;;;;;5114427;28;20027;-69
2023/06/02 00:57:43;;;;;;;8.10;4.20;;;19.40;63.90;;;;;;5113804;28;20361;-69
2023/06/02 01:00:09;;;;;;;5.90;3.83;;;19.30;63.90;;;;;;5114342;28;20023;-70
2023/06/02 01:02:35;;;;;;;10.25;3.83;;;19.40;63.80;;;;;;5114742;28;20023;-69
2023/06/02 01:05:10;;;;;;;7.60;3.92;;;19.30;63.60;;;;;;5114707;28;20035;-69
2023/06/02 01:07:39;;;;;;;8.98;4.10;;;19.30;63.30;;;;;;5114621;28;20118;-68
2023/06/02 01:10:08;;;;;;;5.65;4.00;;;19.30;63.10;;;;;;5114542;28;20024;-68
2023/06/02 01:12:34;;;;;;;6.95;3.50;;;19.30;63.10;;;;;;5114792;28;20475;-69
2023/06/02 01:14:59;;;;;;;4.43;3.15;;;19.30;62.60;;;;;;5114408;28;20031;-69
2023/06/02 01:17:30;;;;;;;5.53;3.50;;;19.30;62.40;;;;;;5113914;28;20019;-69
2023/06/02 01:20:10;;;;;;;9.20;3.90;;;19.30;62.20;;;;;;5114433;28;20134;-67
2023/06/02 01:23:08;;;;;;;9.55;3.97;;;19.30;62.30;;;;;;5114419;27;20047;-73
2023/06/02 01:25:36;;;;;;;5.88;3.70;;;19.20;62.30;;;;;;5079976;28;20123;-69
2023/06/02 01:28:04;;;;;;;9.27;4.38;;;19.20;62.60;;;;;;5114221;28;20019;-69
2023/06/02 01:30:31;;;;;;;5.95;3.65;;;19.20;63.20;;;;;;5112536;28;20346;-67
2023/06/02 01:33:12;;;;;;;10.73;4.65;;;19.20;63.80;;;;;;5114193;28;20051;-68
2023/06/02 01:35:44;;;;;;;7.22;3.40;;;19.20;64.30;;;;;;5114122;28;20023;-68
2023/06/02 01:38:12;;;;;;;8.90;4.13;;;19.10;64.30;;;;;;5114071;28;20128;-69
2023/06/02 01:40:38;;;;;;;5.82;3.83;;;19.10;64.30;;;;;;5113913;28;20448;-68
2023/06/02 01:43:06;;;;;;;10.32;4.13;;;19.10;64.00;;;;;;5113903;28;20152;-68
2023/06/02 01:45:33;;;;;;;5.00;3.30;;;19.00;63.90;;;;;;5112774;28;20081;-68
2023/06/02 01:48:06;;;;;;;10.18;3.80;;;19.00;63.70;;;;;;5113875;28;20016;-68
2023/06/02 01:50:33;;;;;;;8.00;3.72;;;19.00;63.40;;;;;;5113473;28;20035;-68
2023/06/02 01:52:59;;;;;;;5.07;3.40;;;19.00;63.70;;;;;;5113412;28;20537;-67
2023/06/02 01:55:25;;;;;;;11.02;3.83;;;18.90;63.70;;;;;;5113127;28;20114;-68
2023/06/02 01:57:51;;;;;;;7.22;3.65;;;18.90;63.70;;;;;;5113649;28;20454;-68
2023/06/02 02:00:18;;;;;;;6.55;3.70;;;18.90;63.80;;;;;;5113002;28;20391;-67
2023/06/02 02:02:44;;;;;;;12.80;3.80;;;18.80;64.30;;;;;;5113501;28;20115;-69
2023/06/02 02:05:10;;;;;;;6.97;3.40;;;18.70;64.70;;;;;;5113516;28;20107;-67
2023/06/02 02:07:37;;;;;;;7.03;3.65;;;18.70;65.00;;;;;;5113067;28;20031;-68
2023/06/02 02:10:02;;;;;;;6.32;3.03;;;18.60;65.40;;;;;;5111948;28;20035;-67
2023/06/02 02:12:28;;;;;;;8.07;3.60;;;18.60;65.70;;;;;;5112970;28;20027;-68
2023/06/02 02:14:56;;;;;;;7.30;3.45;;;18.50;65.80;;;;;;5113886;28;20127;-69
2023/06/02 02:17:25;;;;;;;4.63;3.20;;;18.50;66.30;;;;;;5112669;28;20039;-68
2023/06/02 02:19:54;;;;;;;4.95;3.30;;;18.50;66.70;;;;;;5113275;28;20112;-67
2023/06/02 02:22:19;;;;;;;10.18;3.20;;;18.50;66.80;;;;;;5112539;28;20023;-70
2023/06/02 02:24:46;;;;;;;7.20;3.50;;;18.40;67.30;;;;;;5111743;28;20357;-68
2023/06/02 02:27:12;;;;;;;7.35;3.75;;;18.40;67.90;;;;;;5113315;28;20066;-69
2023/06/02 02:29:38;;;;;;;7.00;3.78;;;18.40;67.90;;;;;;5112725;28;20539;-68
2023/06/02 02:32:05;;;;;;;8.00;3.95;;;18.40;68.40;;;;;;5113175;28;20162;-67
2023/06/02 02:34:33;;;;;;;6.05;4.13;;;18.40;68.70;;;;;;5111366;28;20039;-68
2023/06/02 02:37:01;;;;;;;8.32;3.38;;;18.40;69.20;;;;;;5113113;28;20411;-69
2023/06/02 02:39:30;;;;;;;13.48;4.38;;;18.40;69.60;;;;;;5112691;28;20032;-69
2023/06/02 02:41:56;;;;;;;11.38;4.13;;;18.30;70.00;;;;;;5113083;28;20039;-68
2023/06/02 02:44:21;;;;;;;16.33;4.10;;;18.30;70.30;;;;;;5112191;28;20107;-69
2023/06/02 02:46:47;;;;;;;9.48;4.30;;;18.30;70.60;;;;;;5113200;28;20488;-67
2023/06/02 02:49:13;;;;;;;7.43;3.88;;;18.20;70.80;;;;;;5113365;28;20099;-69
2023/06/02 02:51:39;;;;;;;11.63;4.50;;;18.20;70.80;;;;;;5114572;28;20024;-69
2023/06/02 02:54:05;;;;;;;8.68;3.63;;;18.20;71.10;;;;;;5112860;28;20023;-68
2023/06/02 02:56:30;;;;;;;6.90;4.13;;;18.20;71.20;;;;;;5112602;28;20055;-69
2023/06/02 02:58:59;;;;;;;6.50;3.75;;;18.20;71.60;;;;;;5112889;28;20104;-69
2023/06/02 03:01:26;;;;;;;9.60;4.10;;;18.20;71.80;;;;;;5112505;28;20095;-69
2023/06/02 03:03:53;;;;;;;10.73;4.20;;;18.20;72.30;;;;;;5113016;28;20080;-69
2023/06/02 03:06:19;;;;;;;7.85;4.72;;;18.10;71.80;;;;;;5112377;28;20114;-69
2023/06/02 03:08:48;;;;;;;6.55;4.35;;;18.10;72.20;;;;;;5112565;28;20031;-68
2023/06/02 03:11:14;;;;;;;8.07;4.28;;;18.10;72.50;;;;;;5112795;28;20036;-68
2023/06/02 03:13:40;;;;;;;8.30;4.45;;;18.10;72.50;;;;;;5112350;28;20047;-69
2023/06/02 03:16:06;;;;;;;8.68;4.22;;;18.10;72.70;;;;;;5113117;28;20340;-69
2023/06/02 03:18:32;;;;;;;8.90;4.88;;;18.00;73.20;;;;;;5111809;28;20452;-69
2023/06/02 03:20:58;;;;;;;8.07;4.30;;;18.00;73.50;;;;;;5114395;28;20026;-68
2023/06/02 03:23:25;;;;;;;7.55;4.00;;;18.00;73.90;;;;;;5116205;28;20066;-69
2023/06/02 03:25:51;;;;;;;8.45;4.03;;;18.00;73.80;;;;;;5116405;28;20042;-69
2023/06/02 03:28:18;;;;;;;8.82;4.35;;;18.00;74.10;;;;;;5116521;28;20023;-69
2023/06/02 03:30:44;;;;;;;12.95;3.83;;;18.00;74.30;;;;;;5116163;28;20051;-69
2023/06/02 03:33:09;;;;;;;8.73;4.45;;;17.90;74.40;;;;;;5116388;28;20081;-69
2023/06/02 03:35:35;;;;;;;8.70;4.00;;;17.90;74.60;;;;;;5116026;28;20034;-69
2023/06/02 03:38:03;;;;;;;7.80;4.38;;;17.90;74.90;;;;;;5116386;28;20020;-68
2023/06/02 03:40:28;;;;;;;18.90;4.25;;;17.90;75.20;;;;;;5114535;28;20027;-69
2023/06/02 03:42:54;;;;;;;8.23;4.13;;;17.90;75.40;;;;;;5115922;28;20104;-69
2023/06/02 03:45:19;;;;;;;8.77;4.13;;;17.90;75.40;;;;;;5115705;28;20056;-73
2023/06/02 03:47:45;;;;;;;7.97;4.53;;;17.90;75.60;;;;;;5115077;28;20460;-68
2023/06/02 03:50:10;;;;;;;7.55;4.22;;;18.00;75.30;;;;;;5116156;28;20028;-69
2023/06/02 03:52:36;;;;;;;6.35;4.22;;;18.00;75.60;;;;;;5115586;28;20407;-69
2023/06/02 03:55:02;;;;;;;7.97;4.30;;;18.00;75.60;;;;;;5115565;28;20027;-69
2023/06/02 03:57:28;;;;;;;6.78;4.32;;;18.00;75.50;;;;;;5115605;28;20479;-69
2023/06/02 03:59:53;;;;;;;10.68;4.70;;;18.10;75.40;;;;;;5115835;28;20045;-69
2023/06/02 04:02:19;;;;;;;8.00;4.65;;;18.20;74.90;;;;;;5115859;28;20031;-68
2023/06/02 04:04:44;;;;;;;7.07;4.25;;;18.20;75.00;;;;;;5115070;28;20108;-68
2023/06/02 04:07:10;;;;;;;12.57;4.72;;;18.30;74.60;;;;;;5115791;28;20120;-69
2023/06/02 04:09:35;;;;;;;7.05;4.68;;;18.40;74.00;;;;;;5115355;28;20026;-69
2023/06/02 04:12:01;;;;;;;7.22;4.13;;;18.50;74.00;;;;;;5114571;28;20028;-69
2023/06/02 04:14:27;;;;;;;8.57;3.67;;;18.60;73.90;;;;;;5114853;28;20558;-69
2023/06/02 04:16:54;;;;;;;7.00;3.72;;;18.70;73.00;;;;;;5114349;28;20027;-69
2023/06/02 04:19:19;;;;;;;10.57;3.42;;;18.80;72.20;;;;;;5115839;28;20024;-70
2023/06/02 04:21:45;;;;;;;6.68;3.45;;;18.90;71.60;;;;;;5114030;28;20466;-68
2023/06/02 04:24:11;;;;;;;9.88;3.60;;;19.00;71.10;;;;;;5115550;28;20038;-68
2023/06/02 04:26:36;;;;;;;4.72;3.75;;;19.10;71.10;;;;;;5115273;28;20074;-68
2023/06/02 04:29:02;;;;;;;5.68;3.50;;;19.20;70.30;;;;;;5115513;28;20027;-68
2023/06/02 04:31:39;;;;;;;4.53;3.35;;;19.40;70.60;;;;;;5114686;28;20470;-69
2023/06/02 04:34:06;;;;;;;9.45;4.07;;;19.50;70.20;;;;;;5115337;28;20039;-69
2023/06/02 04:36:32;;;;;;;6.40;3.80;;;19.60;69.50;;;;;;5114782;28;20031;-69
2023/06/02 04:38:57;;;;;;;9.85;3.88;;;19.70;68.70;;;;;;5115482;28;20376;-69
2023/06/02 04:41:24;;;;;;;7.50;3.78;;;19.90;68.60;;;;;;5113803;28;20357;-69
2023/06/02 04:43:51;;;;;;;8.55;4.05;;;19.90;68.80;;;;;;5115038;28;20030;-69
2023/06/02 04:46:16;;;;;;;7.90;4.63;;;20.20;68.30;;;;;;5114516;28;20051;-69
2023/06/02 04:48:42;;;;;;;7.03;4.18;;;20.40;68.00;;;;;;5114509;28;20073;-67
2023/06/02 04:51:08;;;;;;;7.30;4.45;;;20.60;67.60;;;;;;5114624;28;20536;-68
2023/06/02 04:53:33;;;;;;;9.57;4.75;;;20.80;66.10;;;;;;5114466;28;20023;-69
2023/06/02 04:55:59;;;;;;;8.15;4.60;;;21.10;65.80;;;;;;5114467;28;20024;-68
2023/06/02 04:58:25;;;;;;;9.63;4.85;;;21.40;64.40;;;;;;5114670;28;20030;-71
2023/06/02 05:00:51;;;;;;;11.10;5.18;;;21.70;63.50;;;;;;5114768;28;20023;-68
2023/06/02 05:03:16;;;;;;;7.45;4.50;;;22.00;62.10;;;;;;5114798;28;20028;-68
2023/06/02 05:05:42;;;;;;;10.25;5.28;;;22.30;62.10;;;;;;5113792;28;20416;-68
2023/06/02 05:08:08;;;;;;;10.52;4.50;;;22.60;61.40;;;;;;5114551;28;20032;-67
2023/06/02 05:10:33;;;;;;;7.63;4.80;;;23.00;60.50;;;;;;5113823;28;20023;-67
2023/06/02 05:12:59;;;;;;;7.35;3.92;;;23.20;59.60;;;;;;5114283;28;20028;-67
2023/06/02 05:15:25;;;;;;;13.07;4.90;;;23.50;58.40;;;;;;5114382;28;20051;-69
2023/06/02 05:17:53;;;;;;;13.15;5.30;;;23.90;57.30;;;;;;5113535;28;20084;-69
2023/06/02 05:20:18;;;;;;;6.15;4.60;;;24.20;56.10;;;;;;5113932;28;20020;-67
2023/06/02 05:22:44;;;;;;;9.15;4.50;;;24.50;54.90;;;;;;5113800;28;20034;-68
2023/06/02 05:25:10;;;;;;;7.68;4.50;;;24.40;54.40;;;;;;5114210;28;20407;-68
2023/06/02 05:27:37;;;;;;;6.40;4.10;;;24.80;54.50;;;;;;5114044;28;20536;-69
2023/06/02 05:30:03;;;;;;;12.85;4.80;;;24.90;53.20;;;;;;5114111;28;20031;-68
2023/06/02 05:32:28;;;;;;;8.15;4.05;;;24.90;53.00;;;;;;5113711;28;20030;-70
2023/06/02 05:34:54;;;;;;;7.10;3.80;;;25.20;52.20;;;;;;5114480;28;20523;-68
2023/06/02 05:37:20;;;;;;;7.32;3.70;;;25.30;51.80;;;;;;5113980;28;20078;-68
2023/06/02 05:39:46;;;;;;;8.63;4.10;;;25.20;51.10;;;;;;5113237;28;20468;-68
2023/06/02 05:42:11;;;;;;;10.10;4.28;;;25.60;51.10;;;;;;5113832;28;20028;-68
2023/06/02 05:44:37;;;;;;;10.13;4.15;;;26.00;50.40;;;;;;5113174;28;20162;-69
2023/06/02 05:47:03;;;;;;;13.05;4.50;;;26.60;49.20;;;;;;5113989;28;20047;-68
2023/06/02 05:49:29;;;;;;;6.93;4.00;;;26.80;48.70;;;;;;5113152;28;20043;-73
2023/06/02 05:51:54;;;;;;;10.23;4.00;;;27.10;48.10;;;;;;5112488;28;20023;-68
2023/06/02 05:54:20;;;;;;;10.73;4.22;;;27.40;47.00;;;;;;5113529;28;20445;-68
2023/06/02 05:56:45;;;;;;;6.22;4.03;;;27.90;45.90;;;;;;5113218;28;20034;-68
2023/06/02 05:59:11;;;;;;;10.52;3.95;;;28.20;45.80;;;;;;5113659;28;20024;-68
2023/06/02 06:01:37;;;;;;;11.68;4.00;;;28.40;44.90;;;;;;5112920;28;20050;-69
2023/06/02 06:04:02;;;;;;;7.38;3.78;;;28.50;45.00;;;;;;5113467;28;20020;-69
2023/06/02 06:06:28;;;;;;;6.95;2.83;;;29.10;44.20;;;;;;5113632;28;20081;-68
2023/06/02 06:08:54;;;;;;;12.77;4.10;;;29.60;42.90;;;;;;5113116;28;20035;-68
2023/06/02 06:11:21;;;;;;;8.18;3.40;;;30.30;42.60;;;;;;5113276;28;20031;-69
2023/06/02 06:13:46;;;;;;;6.65;4.07;;;30.90;40.90;;;;;;5112610;28;20429;-69
2023/06/02 06:16:12;;;;;;;10.90;3.63;;;30.70;40.10;;;;;;5113034;28;20031;-69
2023/06/02 06:18:37;;;;;;;6.07;3.40;;;31.50;39.60;;;;;;5112656;28;20032;-69
2023/06/02 06:21:03;;;;;;;12.18;3.58;;;31.90;38.10;;;;;;5112489;28;20016;-69
2023/06/02 06:23:29;;;;;;;6.15;3.33;;;32.10;37.60;;;;;;5112957;28;20024;-69
2023/06/02 06:25:54;;;;;;;12.20;3.85;;;32.60;37.40;;;;;;5112661;28;20360;-69
2023/06/02 06:28:21;;;;;;;5.65;3.08;;;32.40;36.60;;;;;;5113031;28;20459;-69
2023/06/02 06:30:46;;;;;;;9.32;3.45;;;32.80;36.00;;;;;;5112731;28;20059;-68
2023/06/02 06:33:12;;;;;;;6.03;3.35;;;32.40;36.30;;;;;;5113413;28;20071;-68
2023/06/02 06:35:38;;;;;;;4.55;3.13;;;32.50;35.50;;;;;;5113055;28;20562;-68
2023/06/02 06:38:04;;;;;;;7.40;3.70;;;32.60;36.40;;;;;;5112833;28;20024;-68
2023/06/02 06:40:31;;;;;;;8.55;3.28;;;33.10;34.70;;;;;;5113030;28;20127;-69
2023/06/02 06:42:57;;;;;;;9.85;3.42;;;33.30;35.40;;;;;;5111099;28;20471;-69
2023/06/02 06:45:23;;;;;;;4.20;3.30;;;33.60;34.10;;;;;;5112846;28;20047;-69
2023/06/02 06:47:50;;;;;;;7.05;3.20;;;33.80;34.30;;;;;;5111371;28;20020;-69
2023/06/02 06:50:15;;;;;;;6.38;3.42;;;34.20;33.30;;;;;;5113039;28;20363;-68
2023/06/02 06:52:41;;;;;;;7.22;3.90;;;34.10;33.30;;;;;;5111106;28;20106;-69
2023/06/02 06:55:07;;;;;;;9.80;3.65;;;34.30;32.00;;;;;;5112831;28;20122;-70
2023/06/02 06:57:33;;;;;;;7.00;3.40;;;34.10;32.60;;;;;;5117279;28;20028;-69
2023/06/02 06:59:59;;;;;;;5.63;3.47;;;34.00;32.60;;;;;;5116526;28;20026;-68
2023/06/02 07:02:24;;;;;;;7.50;3.60;;;33.90;32.30;;;;;;5116696;28;20020;-67
2023/06/02 07:04:50;;;;;;;7.85;3.47;;;33.70;33.40;;;;;;5116741;28;20042;-68
2023/06/02 07:07:16;;;;;;;7.13;3.20;;;33.90;33.10;;;;;;5116898;28;20074;-69
2023/06/02 07:09:42;;;;;;;5.07;3.47;;;33.80;32.90;;;;;;5115052;28;20520;-69
2023/06/02 07:12:08;;;;;;;5.93;3.80;;;33.50;32.70;;;;;;5116891;28;20032;-69
2023/06/02 07:14:33;;;;;;;5.43;3.40;;;33.60;32.50;;;;;;5116769;28;20028;-69
2023/06/02 07:16:59;;;;;;;6.82;3.38;;;33.60;31.80;;;;;;5116160;28;20020;-69
2023/06/02 07:19:25;;;;;;;6.95;3.65;;;33.50;31.50;;;;;;5116762;28;20027;-69
2023/06/02 07:21:52;;;;;;;6.18;3.85;;;33.40;31.90;;;;;;5116271;28;20099;-69
2023/06/02 07:24:18;;;;;;;10.95;2.90;;;33.60;31.40;;;;;;5115987;28;20097;-69
2023/06/02 07:26:44;;;;;;;5.07;3.45;;;33.40;32.10;;;;;;5115935;28;20070;-69
2023/06/02 07:29:10;;;;;;;7.45;3.70;;;33.70;31.80;;;;;;5116575;28;20019;-68
2023/06/02 07:31:36;;;;;;;7.20;3.40;;;34.10;32.50;;;;;;5116435;28;20414;-69
2023/06/02 07:34:01;;;;;;;6.93;3.70;;;34.50;30.80;;;;;;5116450;28;20028;-69
2023/06/02 07:36:27;;;;;;;7.25;3.65;;;34.70;31.30;;;;;;5116129;28;20479;-68
2023/06/02 07:38:53;;;;;;;7.82;3.15;;;34.40;30.70;;;;;;5115928;28;20027;-69
2023/06/02 07:41:18;;;;;;;6.18;3.15;;;34.50;30.80;;;;;;5114895;28;20092;-69
2023/06/02 07:43:45;;;;;;;8.25;4.18;;;34.50;31.80;;;;;;5116124;28;20028;-69
2023/06/02 07:46:10;;;;;;;4.80;3.25;;;34.70;30.80;;;;;;5115815;28;20492;-69
2023/06/02 07:48:36;;;;;;;6.45;3.50;;;34.70;31.40;;;;;;5116113;28;20024;-69
2023/06/02 07:51:02;;;;;;;8.82;3.72;;;34.70;31.50;;;;;;5115652;28;20345;-69
2023/06/02 07:53:29;;;;;;;14.80;3.97;;;34.80;30.80;;;;;;5116119;28;20407;-69
2023/06/02 07:55:55;;;;;;;7.57;3.78;;;34.40;31.70;;;;;;5115559;28;20039;-68
2023/06/02 07:58:20;;;;;;;4.82;3.88;;;34.70;31.40;;;;;;5115995;28;20034;-68
2023/06/02 08:00:46;;;;;;;9.73;4.30;;;33.80;32.10;;;;;;5115474;28;20030;-69
2023/06/02 08:03:11;;;;;;;8.63;4.00;;;32.50;32.90;;;;;;5114908;28;20024;-69
2023/06/02 08:05:37;;;;;;;7.40;4.15;;;32.20;33.90;;;;;;5113708;28;20028;-68
2023/06/02 08:08:03;;;;;;;10.73;4.15;;;32.60;33.80;;;;;;5114641;28;20035;-69
2023/06/02 08:10:29;;;;;;;8.38;3.60;;;32.70;33.50;;;;;;5115775;28;20046;-68
2023/06/02 08:12:54;;;;;;;6.65;4.40;;;32.80;33.80;;;;;;5113959;28;20027;-69
2023/06/02 08:15:20;;;;;;;7.90;4.00;;;32.10;33.40;;;;;;5115246;28;20471;-68
2023/06/02 08:17:45;;;;;;;6.03;3.70;;;31.70;34.50;;;;;;5114909;28;20102;-68
2023/06/02 08:20:11;;;;;;;8.00;3.80;;;31.60;35.30;;;;;;5114392;28;20020;-69
2023/06/02 08:22:37;;;;;;;10.15;4.35;;;31.60;35.60;;;;;;5114077;28;20464;-69
2023/06/02 08:25:03;;;;;;;8.10;4.20;;;31.60;35.10;;;;;;5114825;28;20035;-69
2023/06/02 08:27:29;;;;;;;11.02;4.00;;;31.30;35.50;;;;;;5113122;28;20538;-69
2023/06/02 08:29:56;;;;;;;11.20;3.90;;;31.10;36.40;;;;;;5115038;28;20094;-69
2023/06/02 08:32:22;;;;;;;10.10;5.68;;;31.10;36.60;;;;;;5115254;28;20452;-69
2023/06/02 08:34:54;;;;;;;7.13;3.47;;;31.30;35.60;;;;;;5114843;28;20043;-69
2023/06/02 08:37:21;;;;;;;4.80;3.63;;;31.30;35.80;;;;;;5114121;28;20275;-69
2023/06/02 08:39:48;;;;;;;6.07;3.55;;;31.30;34.80;;;;;;5114367;28;20032;-69
2023/06/02 08:42:16;;;;;;;5.43;3.28;;;31.10;35.20;;;;;;5115079;28;20031;-69
2023/06/02 08:44:43;;;;;;;4.90;3.22;;;30.50;35.20;;;;;;5114853;28;20051;-74
2023/06/02 08:47:13;;;;;;;7.60;4.40;;;30.10;36.00;;;;;;5115239;28;20051;-69
2023/06/02 08:49:41;;;;;;;6.20;3.90;;;30.00;36.60;;;;;;5115156;28;20169;-68
2023/06/02 08:52:11;;;;;;;8.65;3.22;;;29.90;36.70;;;;;;5114706;28;20280;-67
2023/06/02 08:54:39;;;;;;;14.50;4.27;;;29.80;37.10;;;;;;5114590;28;20019;-69
2023/06/02 08:57:05;;;;;;;6.45;3.85;;;29.60;37.50;;;;;;5114343;28;20248;-69
2023/06/02 08:59:32;;;;;;;10.13;4.10;;;29.10;36.90;;;;;;5114959;28;20497;-69
2023/06/02 09:02:00;;;;;;;7.70;3.20;;;29.10;38.50;;;;;;5114349;28;20030;-69
2023/06/02 09:04:27;;;;;;;8.43;3.45;;;29.20;38.40;;;;;;5114604;28;20043;-69
2023/06/02 09:07:11;;;;;;;6.22;3.00;;;29.30;38.80;;;;;;5112695;28;20027;-69
2023/06/02 09:09:42;;;;;;;6.72;3.38;;;29.40;38.00;;;;;;5114399;28;20034;-68
2023/06/02 09:12:09;;;;;;;6.32;3.28;;;29.20;37.40;;;;;;5114240;28;20034;-69
2023/06/02 09:14:39;;;;;;;5.55;3.50;;;29.20;37.60;;;;;;5113951;28;20023;-70
2023/06/02 09:17:24;;;;;;;4.72;3.40;;;29.10;37.80;;;;;;5109062;28;20107;-69
2023/06/02 09:19:52;;;;;;;5.75;3.47;;;28.90;38.00;;;;;;5113578;28;20031;-69
2023/06/02 09:22:18;;;;;;;5.75;3.33;;;28.90;38.70;;;;;;5114290;28;20384;-68
2023/06/02 09:24:43;;;;;;;6.10;3.50;;;28.90;38.00;;;;;;5113025;28;20029;-70
2023/06/02 09:27:15;;;;;;;7.30;3.95;;;28.90;38.20;;;;;;5114353;28;20031;-69
2023/06/02 09:29:42;;;;;;;10.82;3.83;;;28.80;38.70;;;;;;5114296;28;20092;-69
2023/06/02 09:32:12;;;;;;;7.18;3.60;;;28.70;38.50;;;;;;5113401;28;20329;-69
2023/06/02 09:34:38;;;;;;;8.50;3.50;;;28.50;39.00;;;;;;5114408;28;20055;-68
2023/06/02 09:37:17;;;;;;;10.13;3.72;;;28.50;39.00;;;;;;5113613;28;20062;-68
2023/06/02 09:39:49;;;;;;;5.40;3.47;;;28.60;39.80;;;;;;5112668;28;20443;-68
2023/06/02 09:42:16;;;;;;;5.00;3.15;;;28.60;38.80;;;;;;5113800;28;20068;-69
2023/06/02 09:45:06;;;;;;;5.20;3.05;;;28.50;37.90;;;;;;5113593;28;20020;-69
2023/06/02 09:47:40;;;;;;;6.32;3.70;;;28.30;38.10;;;;;;5104290;28;20063;-69
2023/06/02 09:50:07;;;;;;;9.68;3.60;;;28.30;38.90;;;;;;5113352;28;20019;-69
2023/06/02 09:52:33;;;;;;;6.18;3.53;;;28.20;40.10;;;;;;5113783;28;20027;-69
2023/06/02 09:54:59;;;;;;;8.75;3.40;;;28.10;39.40;;;;;;5113224;28;20387;-69
2023/06/02 09:57:25;;;;;;;8.40;3.45;;;28.20;40.00;;;;;;5113612;28;20118;-69
2023/06/02 09:59:51;;;;;;;7.22;3.10;;;28.20;39.90;;;;;;5113278;28;20038;-69
2023/06/02 10:02:17;;;;;;;5.63;3.30;;;28.30;40.00;;;;;;5113376;28;20120;-69
2023/06/02 10:04:44;;;;;;;8.50;3.80;;;28.40;39.10;;;;;;5113523;28;20064;-69
2023/06/02 10:07:34;;;;;;;4.78;3.10;;;28.50;39.40;;;;;;5113515;28;20112;-68
2023/06/02 10:10:13;;;;;;;7.63;3.10;;;28.40;39.60;;;;;;5113138;28;20024;-69
2023/06/02 10:12:56;;;;;;;5.55;3.45;;;28.30;38.80;;;;;;5113818;28;20028;-69
2023/06/02 10:15:22;;;;;;;6.38;3.35;;;28.10;39.30;;;;;;5113257;28;20074;-69
2023/06/02 10:18:22;;;;;;;13.13;4.30;;;28.20;39.70;;;;;;5113353;28;20047;-68
2023/06/02 10:21:25;;;;;;;9.43;3.80;;;28.10;39.90;;;;;;5113072;28;20027;-68
2023/06/02 10:24:08;;;;;;;6.15;3.50;;;28.20;41.10;;;;;;5111599;28;20031;-68
2023/06/02 10:26:45;;;;;;;6.15;3.25;;;28.20;40.50;;;;;;5112919;28;20042;-69
2023/06/02 10:29:13;;;;;;;6.07;3.30;;;28.00;40.50;;;;;;5112649;28;20061;-69
2023/06/02 10:31:39;;;;;;;10.80;3.58;;;27.90;40.70;;;;;;5113063;28;20028;-69
2023/06/02 10:34:04;;;;;;;7.10;3.60;;;27.90;40.50;;;;;;5112726;28;20035;-69
2023/06/02 10:36:56;;;;;;;4.40;3.25;;;27.80;41.10;;;;;;5113032;28;20057;-69
2023/06/02 10:39:35;;;;;;;12.48;3.40;;;27.90;41.40;;;;;;5111813;28;20059;-69
2023/06/02 10:42:14;;;;;;;9.00;3.40;;;28.00;41.90;;;;;;5112642;28;20115;-69
2023/06/02 10:44:40;;;;;;;9.40;3.67;;;28.10;40.80;;;;;;5112950;28;20442;-69
2023/06/02 10:47:17;;;;;;;4.13;3.72;;;28.20;40.90;;;;;;5110657;28;20136;-69
2023/06/02 10:50:01;;;;;;;8.57;4.10;;;28.00;40.60;;;;;;5113002;28;20024;-69
2023/06/02 10:52:31;;;;;;;5.20;3.30;;;28.10;40.80;;;;;;5112633;28;20111;-69
2023/06/02 10:55:12;;;;;;;6.50;3.15;;;28.20;40.60;;;;;;5112695;28;20410;-69
2023/06/02 10:57:58;;;;;;;9.40;3.83;;;28.20;41.00;;;;;;5112858;28;20031;-69
2023/06/02 11:00:36;;;;;;;14.35;3.70;;;28.20;40.90;;;;;;5113169;28;20134;-70
2023/06/02 11:03:26;;;;;;;9.55;3.55;;;28.20;42.70;;;;;;5112471;28;20039;-69
2023/06/02 11:06:15;;;;;;;5.18;3.47;;;28.30;42.70;;;;;;5112836;28;20043;-69
2023/06/02 11:08:41;;;;;;;7.18;3.70;;;28.20;40.90;;;;;;5112824;28;20032;-69
2023/06/02 11:11:07;;;;;;;11.38;3.85;;;28.00;41.70;;;;;;5111181;28;20180;-69
2023/06/02 11:13:57;;;;;;;4.60;3.50;;;28.10;42.20;;;;;;5112429;28;20107;-69
2023/06/02 11:16:22;;;;;;;6.97;3.50;;;28.30;42.00;;;;;;5111590;28;20028;-70
2023/06/02 11:18:48;;;;;;;7.85;3.40;;;28.30;41.80;;;;;;5112103;28;20024;-68
2023/06/02 11:21:19;;;;;;;10.27;3.42;;;28.30;41.40;;;;;;5112266;28;20357;-69
2023/06/02 11:23:45;;;;;;;10.82;3.70;;;28.30;42.90;;;;;;5112706;28;20050;-68
2023/06/02 11:26:15;;;;;;;7.65;3.85;;;28.30;41.90;;;;;;5112071;28;20472;-69
2023/06/02 11:28:41;;;;;;;;;;;28.30;41.90;;;;;;5113343;28;20020;-69
2023/06/02 11:31:14;;;;;;;8.30;3.45;;;28.40;42.40;;;;;;5111936;28;19904;-69
2023/06/02 11:33:41;;;;;;;6.25;3.70;;;28.40;41.20;;;;;;5112994;28;20039;-69
2023/06/02 11:36:09;;;;;;;7.00;3.80;;;28.40;41.20;;;;;;5112151;28;20467;-69
2023/06/02 11:38:35;;;;;;;9.02;3.70;;;28.50;41.00;;;;;;5112563;28;20460;-69
2023/06/02 11:41:21;;;;;;;8.63;3.75;;;28.50;40.50;;;;;;5112288;28;20063;-68
2023/06/02 11:43:48;;;;;;;7.22;3.90;;;28.40;40.30;;;;;;5116254;28;20034;-69
2023/06/02 11:46:19;;;;;;;10.20;4.20;;;28.40;40.70;;;;;;5115835;28;20059;-68
2023/06/02 11:48:45;;;;;;;4.63;3.00;;;28.30;40.80;;;;;;5116210;28;20047;-68
2023/06/02 11:51:15;;;;;;;6.70;3.30;;;28.30;40.60;;;;;;5115414;28;20380;-69
2023/06/02 11:53:45;;;;;;;6.47;3.60;;;28.20;38.20;;;;;;5115989;28;20035;-69
2023/06/02 11:56:12;;;;;;;9.10;3.35;;;28.10;39.60;;;;;;5115838;28;20301;-69
2023/06/02 11:58:48;;;;;;;7.80;3.38;;;28.00;40.60;;;;;;5115940;28;20028;-70
2023/06/02 12:01:17;;;;;;;6.50;3.60;;;28.00;40.20;;;;;;5115436;28;20027;-68
2023/06/02 12:04:01;;;;;;;4.68;3.50;;;28.00;40.60;;;;;;5115994;28;20368;-67
2023/06/02 12:06:27;;;;;;;6.75;3.63;;;28.00;41.00;;;;;;5115707;28;20035;-68
2023/06/02 12:08:54;;;;;;;7.03;3.75;;;28.00;40.50;;;;;;5115646;28;20149;-69
2023/06/02 12:11:22;;;;;;;5.72;3.83;;;28.00;40.90;;;;;;5113961;28;20498;-69
2023/06/02 12:14:02;;;;;;;5.72;3.70;;;27.90;40.80;;;;;;5115591;28;20019;-69
2023/06/02 12:16:28;;;;;;;13.40;4.20;;;27.90;40.80;;;;;;5113917;28;20027;-68
2023/06/02 12:19:12;;;;;;;7.15;3.83;;;27.90;41.20;;;;;;5115633;28;20026;-69
2023/06/02 12:21:39;;;;;;;6.72;3.90;;;27.80;41.50;;;;;;5114519;28;20024;-69
2023/06/02 12:24:05;;;;;;;5.03;3.70;;;27.80;41.40;;;;;;5115052;28;20019;-69
2023/06/02 12:26:42;;;;;;;7.00;3.50;;;27.70;42.30;;;;;;5115330;28;20042;-68
2023/06/02 12:29:12;;;;;;;7.50;3.67;;;27.70;41.80;;;;;;5114968;28;20035;-69
2023/06/02 12:31:38;;;;;;;5.57;3.90;;;27.60;41.40;;;;;;5115352;28;20020;-69
2023/06/02 12:34:06;;;;;;;7.80;4.18;;;27.60;41.90;;;;;;5114853;28;20019;-69
2023/06/02 12:36:32;;;;;;;8.07;3.35;;;27.60;41.60;;;;;;5115286;28;20031;-69
2023/06/02 12:39:00;;;;;;;6.40;3.53;;;27.60;41.40;;;;;;5114896;28;20399;-70
2023/06/02 12:41:26;;;;;;;7.05;3.42;;;27.50;41.10;;;;;;5115141;28;20102;-68
2023/06/02 12:43:52;;;;;;;6.10;3.30;;;27.40;41.00;;;;;;5115265;28;20409;-69
2023/06/02 12:46:18;;;;;;;4.95;3.35;;;27.30;41.00;;;;;;5114219;28;20054;-68
2023/06/02 12:48:43;;;;;;;7.63;3.90;;;27.40;41.40;;;;;;5115011;28;20028;-68
2023/06/02 12:51:09;;;;;;;8.52;3.47;;;27.40;41.10;;;;;;5114843;28;20024;-68